createdAt,value
2023-02-22T00:02:32.113Z,-0.41
2023-02-22T00:05:34.571Z,-0.43
2023-02-22T00:08:37.428Z,-0.46
2023-02-22T00:11:46.067Z,-0.53
2023-02-22T00:14:51.878Z,-0.60
2023-02-22T00:17:55.000Z,-0.63
2023-02-22T00:20:59.714Z,-0.66
2023-02-22T00:24:16.540Z,-0.70
2023-02-22T00:27:19.187Z,-0.72
2023-02-22T00:30:26.582Z,-0.75
2023-02-22T00:33:29.983Z,-0.77
2023-02-22T00:36:32.460Z,-0.78
2023-02-22T00:39:35.063Z,-0.80
2023-02-22T00:42:38.108Z,-0.81
2023-02-22T00:45:41.072Z,-0.80
2023-02-22T00:48:44.156Z,-0.80
2023-02-22T00:51:46.695Z,-0.77
2023-02-22T00:54:50.812Z,-0.74
2023-02-22T00:57:57.819Z,-0.73
2023-02-22T01:01:02.680Z,-0.72
2023-02-22T01:04:06.318Z,-0.71
2023-02-22T01:07:11.539Z,-0.73
2023-02-22T01:10:14.433Z,-0.77
2023-02-22T01:13:23.555Z,-0.82
2023-02-22T01:16:29.591Z,-0.86
2023-02-22T01:19:32.936Z,-0.88
2023-02-22T01:22:35.082Z,-0.89
2023-02-22T01:25:38.137Z,-0.90
2023-02-22T01:28:42.905Z,-0.89
2023-02-22T01:31:53.480Z,-0.91
2023-02-22T01:34:56.437Z,-0.93
2023-02-22T01:37:59.723Z,-0.98
2023-02-22T01:41:05.213Z,-1.00
2023-02-22T01:44:31.914Z,-1.01
2023-02-22T01:47:34.101Z,-1.04
2023-02-22T01:51:00.062Z,-1.06
2023-02-22T01:54:28.753Z,-1.07
2023-02-22T01:57:34.320Z,-1.06
2023-02-22T02:00:39.522Z,-1.05
2023-02-22T02:03:42.258Z,-1.05
2023-02-22T02:06:46.925Z,-1.06
2023-02-22T02:09:59.616Z,-1.06
2023-02-22T02:13:03.777Z,-1.05
2023-02-22T02:16:06.544Z,-1.05
2023-02-22T02:19:22.980Z,-1.05
2023-02-22T02:22:31.308Z,-1.09
2023-02-22T02:25:45.408Z,-1.14
2023-02-22T02:29:39.061Z,-1.18
2023-02-22T02:33:00.548Z,-1.23
2023-02-22T02:36:16.322Z,-1.22
2023-02-22T02:39:31.009Z,-1.22
2023-02-22T02:42:37.773Z,-1.27
2023-02-22T02:46:11.888Z,-1.31
2023-02-22T02:49:28.742Z,-1.33
2023-02-22T02:52:34.477Z,-1.32
2023-02-22T02:55:39.113Z,-1.33
2023-02-22T02:58:49.238Z,-1.32
2023-02-22T03:02:12.855Z,-1.32
2023-02-22T03:05:47.629Z,-1.33
2023-02-22T03:09:09.980Z,-1.34
2023-02-22T03:12:27.250Z,-1.35
2023-02-22T03:15:56.464Z,-1.37
2023-02-22T03:19:21.284Z,-1.41
2023-02-22T03:22:33.003Z,-1.46
2023-02-22T03:25:51.494Z,-1.50
2023-02-22T03:28:58.240Z,-1.51
2023-02-22T03:32:10.978Z,-1.54
2023-02-22T03:35:24.793Z,-1.54
2023-02-22T03:38:29.984Z,-1.55
2023-02-22T03:41:38.073Z,-1.55
2023-02-22T03:44:43.161Z,-1.53
2023-02-22T03:47:52.440Z,-1.53
2023-02-22T03:50:54.948Z,-1.52
2023-02-22T03:53:57.705Z,-1.51
2023-02-22T03:57:16.080Z,-1.51
2023-02-22T04:00:23.898Z,-1.54
2023-02-22T04:03:25.937Z,-1.55
2023-02-22T04:06:29.048Z,-1.54
2023-02-22T04:09:34.165Z,-1.53
2023-02-22T04:12:38.257Z,-1.54
2023-02-22T04:15:42.298Z,-1.55
2023-02-22T04:18:46.529Z,-1.54
2023-02-22T04:21:53.460Z,-1.52
2023-02-22T04:25:01.391Z,-1.54
2023-02-22T04:28:06.143Z,-1.56
2023-02-22T04:31:23.353Z,-1.59
2023-02-22T04:34:26.677Z,-1.60
2023-02-22T04:37:29.100Z,-1.61
2023-02-22T04:40:32.014Z,-1.64
2023-02-22T04:43:38.179Z,-1.63
2023-02-22T04:46:49.766Z,-1.64
2023-02-22T04:49:52.962Z,-1.70
2023-02-22T04:52:59.198Z,-1.79
2023-02-22T04:56:02.541Z,-1.84
2023-02-22T04:59:05.020Z,-1.84
2023-02-22T05:02:07.718Z,-1.84
2023-02-22T05:05:17.869Z,-1.85
2023-02-22T05:08:21.138Z,-1.86
2023-02-22T05:11:29.054Z,-1.89
2023-02-22T05:14:31.021Z,-1.93
2023-02-22T05:17:38.169Z,-1.96
2023-02-22T05:20:40.159Z,-2.03
2023-02-22T05:23:46.014Z,-2.11
2023-02-22T05:26:52.036Z,-2.16
2023-02-22T05:29:54.416Z,-2.20
2023-02-22T05:32:57.227Z,-2.24
2023-02-22T05:35:59.216Z,-2.32
2023-02-22T05:39:02.720Z,-2.34
2023-02-22T05:42:05.420Z,-2.34
2023-02-22T05:45:09.405Z,-2.29
2023-02-22T05:48:15.166Z,-2.27
2023-02-22T05:51:21.135Z,-2.26
2023-02-22T05:54:24.347Z,-2.22
2023-02-22T05:57:26.447Z,-2.20
2023-02-22T06:00:30.603Z,-2.13
2023-02-22T06:03:35.427Z,-2.05
2023-02-22T06:06:39.102Z,-2.01
2023-02-22T06:09:43.318Z,-1.99
2023-02-22T06:12:47.074Z,-1.95
2023-02-22T06:15:49.823Z,-1.90
2023-02-22T06:18:56.010Z,-1.88
2023-02-22T06:22:00.760Z,-1.91
2023-02-22T06:25:05.896Z,-1.95
2023-02-22T06:28:09.046Z,-1.94
2023-02-22T06:31:11.119Z,-1.94
2023-02-22T06:34:16.046Z,-1.97
2023-02-22T06:37:23.893Z,-2.01
2023-02-22T06:40:30.176Z,-2.04
2023-02-22T06:43:36.386Z,-2.02
2023-02-22T06:46:40.933Z,-1.98
2023-02-22T06:49:46.250Z,-1.90
2023-02-22T06:52:49.552Z,-1.87
2023-02-22T06:55:55.130Z,-1.82
2023-02-22T06:58:57.782Z,-1.73
2023-02-22T07:01:59.886Z,-1.62
2023-02-22T07:05:05.396Z,-1.54
2023-02-22T07:08:10.464Z,-1.60
2023-02-22T07:11:14.211Z,-1.70
2023-02-22T07:14:19.120Z,-1.72
2023-02-22T07:17:24.502Z,-1.69
2023-02-22T07:20:29.962Z,-1.61
2023-02-22T07:23:35.877Z,-1.45
2023-02-22T07:26:42.576Z,-1.34
2023-02-22T07:29:53.475Z,-1.34
2023-02-22T07:33:07.433Z,-1.31
2023-02-22T07:36:09.639Z,-1.30
2023-02-22T07:39:16.479Z,-1.21
2023-02-22T07:42:20.763Z,-1.17
2023-02-22T07:45:29.125Z,-1.20
2023-02-22T07:48:33.939Z,-1.17
2023-02-22T07:51:36.375Z,-1.16
2023-02-22T07:54:39.558Z,-1.18
2023-02-22T07:57:46.225Z,-1.20
